createdAt,value
2023-04-20T00:01:30.506Z,1.54
2023-04-20T00:03:57.187Z,1.43
2023-04-20T00:06:26.589Z,1.36
2023-04-20T00:08:55.460Z,1.36
2023-04-20T00:11:22.002Z,1.37
2023-04-20T00:13:48.406Z,1.30
2023-04-20T00:16:16.139Z,1.24
2023-04-20T00:18:45.777Z,1.11
2023-04-20T00:21:13.810Z,1.06
2023-04-20T00:23:40.655Z,1.07
2023-04-20T00:26:07.439Z,1.00
2023-04-20T00:28:33.962Z,0.95
2023-04-20T00:31:00.510Z,0.94
2023-04-20T00:33:27.036Z,0.95
2023-04-20T00:35:53.404Z,0.93
2023-04-20T00:38:19.745Z,0.97
2023-04-20T00:40:46.291Z,0.99
2023-04-20T00:43:14.000Z,1.02
2023-04-20T00:45:40.784Z,1.04
2023-04-20T00:48:07.641Z,1.06
2023-04-20T00:50:34.636Z,1.11
2023-04-20T00:53:03.216Z,1.08
2023-04-20T00:55:31.009Z,1.09
2023-04-20T00:57:57.660Z,1.16
2023-04-20T01:00:40.588Z,0.96
2023-04-20T01:03:08.046Z,0.90
2023-04-20T01:05:35.061Z,0.90
2023-04-20T01:08:03.000Z,0.89
2023-04-20T01:10:29.845Z,0.92
2023-04-20T01:12:57.021Z,0.96
2023-04-20T01:15:23.432Z,0.92
2023-04-20T01:17:51.182Z,0.92
2023-04-20T01:20:17.768Z,0.84
2023-04-20T01:22:46.243Z,0.80
2023-04-20T01:25:12.589Z,0.85
2023-04-20T01:27:39.015Z,0.79
2023-04-20T01:30:07.121Z,0.86
2023-04-20T01:32:34.668Z,0.82
2023-04-20T01:35:02.517Z,0.78
2023-04-20T01:37:29.357Z,0.71
2023-04-20T01:39:56.365Z,0.66
2023-04-20T01:42:23.437Z,0.67
2023-04-20T01:44:49.948Z,0.65
2023-04-20T01:47:16.347Z,0.64
2023-04-20T01:49:42.731Z,0.57
2023-04-20T01:52:09.983Z,0.41
2023-04-20T01:54:36.400Z,0.36
2023-04-20T01:57:03.211Z,0.28
2023-04-20T01:59:29.962Z,0.25
2023-04-20T02:01:56.437Z,0.18
2023-04-20T02:04:23.221Z,0.19
2023-04-20T02:06:49.530Z,0.20
2023-04-20T02:09:16.244Z,0.24
2023-04-20T02:11:42.776Z,0.26
2023-04-20T02:14:09.625Z,0.29
2023-04-20T02:16:37.090Z,0.29
2023-04-20T02:19:03.631Z,0.31
2023-04-20T02:21:30.049Z,0.34
2023-04-20T02:23:56.741Z,0.34
2023-04-20T02:26:25.662Z,0.30
2023-04-20T02:28:52.102Z,0.13
2023-04-20T02:31:19.127Z,0.08
2023-04-20T02:33:45.671Z,0.06
2023-04-20T02:36:12.059Z,0.06
2023-04-20T02:38:38.451Z,0.10
2023-04-20T02:41:04.986Z,0.09
2023-04-20T02:43:31.381Z,0.05
2023-04-20T02:45:57.804Z,0.02
2023-04-20T02:48:24.292Z,0.08
2023-04-20T02:50:50.789Z,0.09
2023-04-20T02:53:17.514Z,0.10
2023-04-20T02:55:43.885Z,0.07
2023-04-20T02:58:10.379Z,0.05
2023-04-20T03:00:37.042Z,0.03
2023-04-20T03:03:03.925Z,-0.02
2023-04-20T03:05:30.537Z,0.01
2023-04-20T03:07:56.884Z,-0.02
2023-04-20T03:10:23.749Z,-0.06
2023-04-20T03:12:50.165Z,-0.06
2023-04-20T03:15:16.573Z,-0.06
2023-04-20T03:17:42.980Z,-0.07
2023-04-20T03:20:09.567Z,-0.08
2023-04-20T03:22:35.939Z,-0.11
2023-04-20T03:25:02.620Z,-0.14
2023-04-20T03:27:29.160Z,-0.18
2023-04-20T03:29:55.487Z,-0.18
2023-04-20T03:32:22.284Z,-0.26
2023-04-20T03:34:48.713Z,-0.23
2023-04-20T03:37:15.243Z,-0.20
2023-04-20T03:39:41.669Z,-0.23
2023-04-20T03:42:08.105Z,-0.31
2023-04-20T03:44:34.623Z,-0.32
2023-04-20T03:47:01.308Z,-0.37
2023-04-20T03:49:30.117Z,-0.40
2023-04-20T03:51:56.505Z,-0.44
2023-04-20T03:54:23.206Z,-0.39
2023-04-20T03:56:49.881Z,-0.44
2023-04-20T03:59:16.785Z,-0.51
2023-04-20T04:01:43.347Z,-0.58
2023-04-20T04:04:10.088Z,-0.58
2023-04-20T04:06:36.877Z,-0.51
2023-04-20T04:09:03.536Z,-0.49
2023-04-20T04:11:30.390Z,-0.59
2023-04-20T04:13:58.590Z,-0.59
2023-04-20T04:16:25.423Z,-0.78
2023-04-20T04:18:51.858Z,-0.76
2023-04-20T04:21:18.269Z,-0.76
2023-04-20T04:23:44.632Z,-0.72
2023-04-20T04:26:11.052Z,-0.77
2023-04-20T04:28:37.579Z,-0.78
2023-04-20T04:31:04.069Z,-0.75
2023-04-20T04:33:30.520Z,-0.75
2023-04-20T04:35:57.257Z,-0.71
2023-04-20T04:38:23.748Z,-0.62
2023-04-20T04:40:50.262Z,-0.59
2023-04-20T04:43:16.600Z,-0.54
2023-04-20T04:45:42.959Z,-0.51
2023-04-20T04:48:09.641Z,-0.51
2023-04-20T04:50:36.172Z,-0.44
2023-04-20T04:53:02.701Z,-0.39
2023-04-20T04:55:29.422Z,-0.41
2023-04-20T04:57:55.897Z,-0.30
2023-04-20T05:00:22.484Z,-0.25
2023-04-20T05:02:49.198Z,-0.15
2023-04-20T05:05:15.691Z,-0.06
2023-04-20T05:07:42.098Z,0.10
2023-04-20T05:10:09.144Z,0.23
2023-04-20T05:12:35.884Z,0.35
2023-04-20T05:15:02.459Z,0.41
2023-04-20T05:17:28.886Z,0.29
2023-04-20T05:19:55.480Z,0.44
2023-04-20T05:22:21.861Z,0.50
2023-04-20T05:24:48.216Z,0.56
2023-04-20T05:27:15.939Z,0.63
2023-04-20T05:29:42.508Z,0.62
2023-04-20T05:32:09.049Z,0.77
2023-04-20T05:34:35.677Z,0.84
2023-04-20T05:37:04.657Z,1.00
2023-04-20T05:39:31.164Z,1.08
2023-04-20T05:41:57.609Z,1.14
2023-04-20T05:44:24.115Z,1.24
2023-04-20T05:46:50.655Z,1.26
2023-04-20T05:49:17.639Z,1.42
2023-04-20T05:51:44.540Z,1.71
2023-04-20T05:54:10.949Z,1.76
2023-04-20T05:56:37.682Z,2.05
2023-04-20T05:59:04.784Z,2.04
2023-04-20T06:01:31.132Z,1.99
2023-04-20T06:03:57.919Z,2.02
2023-04-20T06:06:24.399Z,2.06
2023-04-20T06:08:51.052Z,2.13
2023-04-20T06:11:17.509Z,2.00
2023-04-20T06:13:43.957Z,2.07
2023-04-20T06:16:10.370Z,2.72
2023-04-20T06:18:37.277Z,2.99
2023-04-20T06:21:04.631Z,3.23
2023-04-20T06:23:31.204Z,3.78
2023-04-20T06:25:57.667Z,4.44
2023-04-20T06:28:24.392Z,4.18
2023-04-20T06:30:50.811Z,4.20
2023-04-20T06:33:17.238Z,5.10
2023-04-20T06:35:43.908Z,6.14
2023-04-20T06:38:10.277Z,5.61
2023-04-20T06:40:37.157Z,5.42
2023-04-20T06:43:03.933Z,5.29
2023-04-20T06:45:31.797Z,5.08
2023-04-20T06:48:00.746Z,4.69
2023-04-20T06:50:27.571Z,4.45
2023-04-20T06:52:54.027Z,4.27
2023-04-20T06:55:20.464Z,4.25
2023-04-20T06:57:48.732Z,4.04
2023-04-20T07:00:15.741Z,4.42
2023-04-20T07:02:43.819Z,4.81
2023-04-20T07:05:10.680Z,5.14
2023-04-20T07:07:37.639Z,5.14
2023-04-20T07:10:04.301Z,5.45
2023-04-20T07:12:30.844Z,5.52
2023-04-20T07:14:57.237Z,5.48
2023-04-20T07:17:27.836Z,5.61
2023-04-20T07:19:55.343Z,5.50
2023-04-20T07:22:22.492Z,5.50
2023-04-20T07:24:49.492Z,4.93
2023-04-20T07:27:19.296Z,4.70
2023-04-20T07:29:45.799Z,4.58
2023-04-20T07:32:12.704Z,4.53
2023-04-20T07:34:39.699Z,4.47
2023-04-20T07:37:06.239Z,4.55
2023-04-20T07:39:35.081Z,4.67
2023-04-20T07:42:02.924Z,4.73
2023-04-20T07:44:32.647Z,4.92
2023-04-20T07:46:59.126Z,5.18
2023-04-20T07:49:25.927Z,5.37
2023-04-20T07:52:03.183Z,5.63
2023-04-20T07:54:35.938Z,5.32
2023-04-20T07:57:02.827Z,5.21
2023-04-20T07:59:29.981Z,5.45
2023-04-20T08:02:01.245Z,5.28
2023-04-20T08:04:28.275Z,5.23
2023-04-20T08:06:54.854Z,5.31
2023-04-20T08:09:21.805Z,5.55
2023-04-20T08:11:48.847Z,5.66
2023-04-20T08:14:15.777Z,5.41
2023-04-20T08:16:42.936Z,5.84
2023-04-20T08:19:09.476Z,5.70
2023-04-20T08:21:40.274Z,5.50
2023-04-20T08:24:08.051Z,5.33
2023-04-20T08:26:35.180Z,5.06
2023-04-20T08:29:03.482Z,5.20
2023-04-20T08:31:29.926Z,5.31
2023-04-20T08:33:57.842Z,5.14
2023-04-20T08:36:24.383Z,5.33
2023-04-20T08:38:57.174Z,5.30
2023-04-20T08:41:26.148Z,5.10
2023-04-20T08:43:52.596Z,5.21
2023-04-20T08:46:21.069Z,5.17
2023-04-20T08:48:49.805Z,5.13
2023-04-20T08:51:16.262Z,5.18
2023-04-20T08:53:42.732Z,5.15
2023-04-20T08:56:09.737Z,5.27
2023-04-20T08:58:36.245Z,5.24
2023-04-20T09:01:02.653Z,5.25
2023-04-20T09:03:55.422Z,5.21
2023-04-20T09:06:23.306Z,5.56
2023-04-20T09:08:50.327Z,5.63
2023-04-20T09:11:28.326Z,5.64
2023-04-20T09:13:58.903Z,5.94
2023-04-20T09:16:26.418Z,6.16
2023-04-20T09:18:54.883Z,6.50
2023-04-20T09:21:21.694Z,6.46
2023-04-20T09:24:05.858Z,6.18
2023-04-20T09:26:33.503Z,6.05
2023-04-20T09:29:03.451Z,6.54
2023-04-20T09:31:29.884Z,6.24
2023-04-20T09:34:03.600Z,6.03
2023-04-20T09:36:44.493Z,6.22
2023-04-20T09:39:18.934Z,6.31
2023-04-20T09:41:45.791Z,6.51
2023-04-20T09:44:15.731Z,6.74
2023-04-20T09:46:46.024Z,6.50
2023-04-20T09:49:15.621Z,6.34
2023-04-20T09:51:43.870Z,6.29
2023-04-20T09:54:10.816Z,6.45
2023-04-20T09:56:39.327Z,6.69
2023-04-20T09:59:07.771Z,6.32
2023-04-20T10:01:35.522Z,6.64
2023-04-20T10:04:04.022Z,6.13
2023-04-20T10:06:33.052Z,6.45
2023-04-20T10:09:02.594Z,6.47
2023-04-20T10:11:51.697Z,6.41
2023-04-20T10:14:25.329Z,6.30
2023-04-20T10:17:05.326Z,6.44
2023-04-20T10:19:45.857Z,6.19
2023-04-20T10:22:25.297Z,6.53
2023-04-20T10:24:51.850Z,6.85
2023-04-20T10:27:19.390Z,7.04
2023-04-20T10:29:46.248Z,7.31
2023-04-20T10:32:22.792Z,7.19
2023-04-20T10:35:04.369Z,6.92
2023-04-20T10:37:30.896Z,6.90
2023-04-20T10:39:57.783Z,7.18
2023-04-20T10:42:24.359Z,7.30
2023-04-20T10:44:52.236Z,7.54
2023-04-20T10:47:27.582Z,7.65
2023-04-20T10:49:54.357Z,7.31
2023-04-20T10:52:33.215Z,7.25
2023-04-20T10:54:59.860Z,7.62
2023-04-20T10:57:26.285Z,7.84
2023-04-20T10:59:52.790Z,7.97
2023-04-20T11:02:19.446Z,7.99
2023-04-20T11:04:46.240Z,8.39
2023-04-20T11:07:14.143Z,8.29
2023-04-20T11:09:41.025Z,8.37
2023-04-20T11:12:12.291Z,8.21
2023-04-20T11:14:50.532Z,8.67
2023-04-20T11:17:17.159Z,8.93
2023-04-20T11:19:43.566Z,9.20
2023-04-20T11:22:21.542Z,9.34
2023-04-20T11:24:48.408Z,9.70
2023-04-20T11:27:22.168Z,9.17
2023-04-20T11:29:59.159Z,9.23
2023-04-20T11:32:27.578Z,9.01
2023-04-20T11:35:12.136Z,8.53
2023-04-20T11:37:51.624Z,8.63
2023-04-20T11:40:18.648Z,7.73
2023-04-20T11:42:45.201Z,7.73
2023-04-20T11:45:12.040Z,7.83
2023-04-20T11:47:39.182Z,7.95
2023-04-20T11:50:06.210Z,7.93
2023-04-20T11:52:32.734Z,7.60
2023-04-20T11:54:59.395Z,7.83
2023-04-20T11:57:25.918Z,7.72
2023-04-20T11:59:52.314Z,7.55
2023-04-20T12:02:18.862Z,7.82
2023-04-20T12:04:45.464Z,7.89
2023-04-20T12:07:12.199Z,7.83
2023-04-20T12:09:38.760Z,7.53
2023-04-20T12:12:05.890Z,7.70
2023-04-20T12:14:32.938Z,7.43
2023-04-20T12:17:00.473Z,7.34
2023-04-20T12:19:27.069Z,7.32
2023-04-20T12:21:53.480Z,7.82
2023-04-20T12:24:19.922Z,7.61
2023-04-20T12:26:46.391Z,7.47
2023-04-20T12:29:12.802Z,7.52
2023-04-20T12:31:39.567Z,7.53
2023-04-20T12:34:06.535Z,7.38
2023-04-20T12:36:33.056Z,7.37
2023-04-20T12:38:59.447Z,7.36
2023-04-20T12:41:29.678Z,7.08
2023-04-20T12:43:56.253Z,7.10
2023-04-20T12:46:23.140Z,7.15
2023-04-20T12:48:49.865Z,7.38
2023-04-20T12:51:16.292Z,7.38
2023-04-20T12:53:42.779Z,7.61
2023-04-20T12:56:09.977Z,7.55
2023-04-20T12:58:36.490Z,7.55
2023-04-20T13:01:03.700Z,7.38
2023-04-20T13:03:30.392Z,7.35
2023-04-20T13:05:57.293Z,7.17
2023-04-20T13:08:23.803Z,7.36
2023-04-20T13:10:50.475Z,7.46
2023-04-20T13:13:20.102Z,7.36
2023-04-20T13:15:46.529Z,7.33
2023-04-20T13:18:13.188Z,7.30
2023-04-20T13:20:39.675Z,7.27
2023-04-20T13:23:06.604Z,6.98
2023-04-20T13:25:39.380Z,6.86
2023-04-20T13:28:11.601Z,6.74
2023-04-20T13:30:39.025Z,6.72
2023-04-20T13:33:05.509Z,6.92
2023-04-20T13:35:33.303Z,6.92
2023-04-20T13:38:00.403Z,7.01
2023-04-20T13:40:27.741Z,7.18
2023-04-20T13:43:06.594Z,7.19
2023-04-20T13:45:33.272Z,7.13
2023-04-20T13:47:59.726Z,7.09
2023-04-20T13:50:26.370Z,7.47
2023-04-20T13:52:54.099Z,7.21
2023-04-20T13:55:20.953Z,7.36
2023-04-20T13:57:48.030Z,7.31
2023-04-20T14:00:14.835Z,7.27
2023-04-20T14:02:43.207Z,7.40
2023-04-20T14:05:10.615Z,7.44
2023-04-20T14:07:38.067Z,7.35
2023-04-20T14:10:05.066Z,7.03
2023-04-20T14:12:32.277Z,7.18
2023-04-20T14:14:59.724Z,7.20
2023-04-20T14:17:27.111Z,7.05
2023-04-20T14:19:54.671Z,7.00
2023-04-20T14:22:22.400Z,7.16
2023-04-20T14:24:49.838Z,7.27
2023-04-20T14:27:17.120Z,6.91
2023-04-20T14:29:43.631Z,6.96
2023-04-20T14:32:09.927Z,6.86
2023-04-20T14:34:36.426Z,6.86
2023-04-20T14:37:02.851Z,6.72
2023-04-20T14:39:29.414Z,6.80
2023-04-20T14:41:55.841Z,6.76
2023-04-20T14:44:22.349Z,6.70
2023-04-20T14:46:49.144Z,6.77
2023-04-20T14:49:15.589Z,6.60
2023-04-20T14:51:42.374Z,6.50
2023-04-20T14:54:12.518Z,6.49
2023-04-20T14:56:39.688Z,6.39
2023-04-20T14:59:06.387Z,6.40
2023-04-20T15:01:34.195Z,6.41
2023-04-20T15:04:02.601Z,6.48
2023-04-20T15:06:29.268Z,6.45
2023-04-20T15:08:56.353Z,6.39
2023-04-20T15:11:23.122Z,6.35
2023-04-20T15:13:49.884Z,6.30
2023-04-20T15:16:16.553Z,6.24
2023-04-20T15:18:43.365Z,6.33
2023-04-20T15:21:10.103Z,6.27
2023-04-20T15:23:37.220Z,6.39
2023-04-20T15:26:04.028Z,6.31
2023-04-20T15:28:31.052Z,6.31
2023-04-20T15:30:59.614Z,6.34
2023-04-20T15:33:27.100Z,6.28
2023-04-20T15:35:53.746Z,6.30
2023-04-20T15:38:20.097Z,6.21
2023-04-20T15:40:46.504Z,6.33
2023-04-20T15:43:13.773Z,6.38
2023-04-20T15:45:41.294Z,6.47
2023-04-20T15:48:10.976Z,6.48
2023-04-20T15:50:37.424Z,6.42
2023-04-20T15:53:04.137Z,6.51
2023-04-20T15:55:30.731Z,6.53
2023-04-20T15:57:57.174Z,6.58
2023-04-20T16:00:24.800Z,6.59
2023-04-20T16:02:51.608Z,6.60
2023-04-20T16:05:18.237Z,6.51
2023-04-20T16:07:44.572Z,6.46
2023-04-20T16:10:14.390Z,6.51
2023-04-20T16:12:40.837Z,6.55
2023-04-20T16:15:08.206Z,6.56
2023-04-20T16:17:38.827Z,6.62
2023-04-20T16:20:08.298Z,6.52
2023-04-20T16:22:34.838Z,6.51
2023-04-20T16:25:02.028Z,6.52
2023-04-20T16:27:30.676Z,6.51
2023-04-20T16:29:57.033Z,6.53
2023-04-20T16:32:23.661Z,6.50
2023-04-20T16:34:50.228Z,6.42
2023-04-20T16:37:19.607Z,6.35
2023-04-20T16:39:46.398Z,6.32
2023-04-20T16:42:12.889Z,6.29
2023-04-20T16:44:41.851Z,6.33
2023-04-20T16:47:10.860Z,6.33
2023-04-20T16:49:37.877Z,6.27
2023-04-20T16:52:04.365Z,6.33
2023-04-20T16:54:31.466Z,6.28
2023-04-20T16:57:03.824Z,6.21
2023-04-20T16:59:30.150Z,6.16
2023-04-20T17:01:58.307Z,6.32
2023-04-20T17:04:24.894Z,6.27
2023-04-20T17:06:51.373Z,6.25
2023-04-20T17:09:18.083Z,6.27
2023-04-20T17:11:44.951Z,6.21
2023-04-20T17:14:11.658Z,6.27
2023-04-20T17:16:38.402Z,6.31
2023-04-20T17:19:04.893Z,6.30
2023-04-20T17:21:31.483Z,6.33
2023-04-20T17:23:58.406Z,6.27
2023-04-20T17:26:24.940Z,6.28
2023-04-20T17:28:51.674Z,6.33
2023-04-20T17:31:23.743Z,6.29
2023-04-20T17:33:50.092Z,6.26
2023-04-20T17:36:16.535Z,6.27
2023-04-20T17:38:47.840Z,6.22
2023-04-20T17:41:14.239Z,6.24
2023-04-20T17:43:40.684Z,6.20
2023-04-20T17:46:07.542Z,6.17
2023-04-20T17:48:34.275Z,6.18
2023-04-20T17:51:00.790Z,6.16
2023-04-20T17:53:27.455Z,6.15
2023-04-20T17:55:53.907Z,6.12
2023-04-20T17:58:20.610Z,6.12
2023-04-20T18:00:47.186Z,6.03
2023-04-20T18:03:19.613Z,5.98
2023-04-20T18:05:48.152Z,6.11
2023-04-20T18:08:14.480Z,6.06
2023-04-20T18:10:41.572Z,6.24
2023-04-20T18:13:08.307Z,6.28
2023-04-20T18:15:34.897Z,6.34
2023-04-20T18:18:11.566Z,6.20
2023-04-20T18:20:38.122Z,6.36
2023-04-20T18:23:04.560Z,6.43
2023-04-20T18:25:31.323Z,6.29
2023-04-20T18:27:57.754Z,6.20
2023-04-20T18:30:28.804Z,6.01
2023-04-20T18:32:55.708Z,6.15
2023-04-20T18:35:22.182Z,6.11
2023-04-20T18:37:48.859Z,5.99
2023-04-20T18:40:16.447Z,5.94
2023-04-20T18:42:44.497Z,5.92
2023-04-20T18:45:11.194Z,5.93
2023-04-20T18:47:37.848Z,5.94
2023-04-20T18:50:07.141Z,5.93
2023-04-20T18:52:33.951Z,5.90
2023-04-20T18:55:01.248Z,5.89
2023-04-20T18:57:29.606Z,5.90
2023-04-20T18:59:56.306Z,5.88
2023-04-20T19:02:23.462Z,5.87
2023-04-20T19:04:50.352Z,5.86
2023-04-20T19:07:17.751Z,5.91
2023-04-20T19:09:45.426Z,5.83
2023-04-20T19:12:11.849Z,5.84
2023-04-20T19:14:38.291Z,5.87
2023-04-20T19:17:06.826Z,6.13
2023-04-20T19:19:34.658Z,6.01
2023-04-20T19:22:03.197Z,5.95
2023-04-20T19:24:33.107Z,6.02
2023-04-20T19:26:59.616Z,6.01
2023-04-20T19:29:27.298Z,5.99
2023-04-20T19:31:53.911Z,5.94
2023-04-20T19:34:21.331Z,5.92
2023-04-20T19:36:48.428Z,5.89
2023-04-20T19:39:15.086Z,5.86
2023-04-20T19:41:41.617Z,5.87
2023-04-20T19:44:08.305Z,5.84
2023-04-20T19:46:34.868Z,5.87
2023-04-20T19:49:06.218Z,5.87
2023-04-20T19:51:33.200Z,5.86
2023-04-20T19:54:01.562Z,5.85
2023-04-20T19:56:27.995Z,5.80
2023-04-20T19:58:54.899Z,5.81
2023-04-20T20:01:21.340Z,5.79
2023-04-20T20:03:48.068Z,5.79
2023-04-20T20:06:14.582Z,5.75
2023-04-20T20:08:41.467Z,5.70
2023-04-20T20:11:08.144Z,5.67
2023-04-20T20:13:34.664Z,5.67
2023-04-20T20:16:01.156Z,5.70
2023-04-20T20:18:27.691Z,5.71
2023-04-20T20:20:54.495Z,5.71
2023-04-20T20:23:20.940Z,5.73
2023-04-20T20:25:49.195Z,5.73
2023-04-20T20:28:15.643Z,5.71
2023-04-20T20:30:42.181Z,5.71
2023-04-20T20:33:11.134Z,5.70
2023-04-20T20:35:37.855Z,5.68
2023-04-20T20:38:04.705Z,5.66
2023-04-20T20:40:32.671Z,5.59
2023-04-20T20:42:59.835Z,5.58
2023-04-20T20:45:27.037Z,5.57
2023-04-20T20:47:53.805Z,5.63
2023-04-20T20:50:20.346Z,5.54
2023-04-20T20:52:47.156Z,5.56
2023-04-20T20:55:15.129Z,5.59
2023-04-20T20:57:41.671Z,5.57
2023-04-20T21:00:10.623Z,5.54
2023-04-20T21:02:37.427Z,5.48
2023-04-20T21:05:04.539Z,5.42
2023-04-20T21:07:31.329Z,5.35
2023-04-20T21:09:58.551Z,5.28
2023-04-20T21:12:27.692Z,5.26
2023-04-20T21:14:54.286Z,5.18
2023-04-20T21:17:24.538Z,5.09
2023-04-20T21:19:51.232Z,5.01
2023-04-20T21:22:17.618Z,5.00
2023-04-20T21:24:44.120Z,4.91
2023-04-20T21:27:10.492Z,4.89
2023-04-20T21:29:36.897Z,4.79
2023-04-20T21:32:03.646Z,4.66
2023-04-20T21:34:30.114Z,4.53
2023-04-20T21:36:56.803Z,4.45
2023-04-20T21:39:23.233Z,4.38
2023-04-20T21:41:49.715Z,4.32
2023-04-20T21:44:16.153Z,4.26
2023-04-20T21:46:42.900Z,4.20
2023-04-20T21:49:09.311Z,4.15
2023-04-20T21:51:35.641Z,4.18
2023-04-20T21:54:02.332Z,4.22
2023-04-20T21:56:28.686Z,4.12
2023-04-20T21:58:56.155Z,4.09
2023-04-20T22:01:23.245Z,4.03
2023-04-20T22:03:49.907Z,4.02
2023-04-20T22:06:16.494Z,4.07
2023-04-20T22:08:42.962Z,4.02
2023-04-20T22:11:10.648Z,4.02
2023-04-20T22:13:37.235Z,4.01
2023-04-20T22:16:04.092Z,4.02
2023-04-20T22:18:30.584Z,4.01
2023-04-20T22:20:56.953Z,4.10
2023-04-20T22:23:23.811Z,4.17
2023-04-20T22:25:50.156Z,4.18
2023-04-20T22:28:16.905Z,4.22
2023-04-20T22:30:43.376Z,4.25
2023-04-20T22:33:10.035Z,4.28
2023-04-20T22:35:36.810Z,4.21
2023-04-20T22:38:03.257Z,4.27
2023-04-20T22:40:29.782Z,4.30
2023-04-20T22:42:56.430Z,4.31
2023-04-20T22:45:23.177Z,4.52
2023-04-20T22:47:50.861Z,4.50
2023-04-20T22:50:17.321Z,4.57
2023-04-20T22:52:44.623Z,4.50
2023-04-20T22:55:11.109Z,4.52
2023-04-20T22:57:38.689Z,4.50
2023-04-20T23:00:07.056Z,4.45
2023-04-20T23:02:34.148Z,4.44
2023-04-20T23:05:00.807Z,4.47
2023-04-20T23:07:27.498Z,4.53
2023-04-20T23:09:53.885Z,4.58
2023-04-20T23:12:20.385Z,4.59
2023-04-20T23:14:46.709Z,4.61
2023-04-20T23:17:13.565Z,4.61
2023-04-20T23:19:40.007Z,4.60
2023-04-20T23:22:06.666Z,4.62
2023-04-20T23:24:33.333Z,4.65
2023-04-20T23:27:00.873Z,4.65
2023-04-20T23:29:28.771Z,4.62
2023-04-20T23:31:56.565Z,4.58
2023-04-20T23:34:23.078Z,4.48
2023-04-20T23:36:49.454Z,4.40
2023-04-20T23:39:16.353Z,4.35
2023-04-20T23:41:43.911Z,4.29
2023-04-20T23:44:11.495Z,4.26
2023-04-20T23:46:38.254Z,4.19
2023-04-20T23:49:04.709Z,4.14
2023-04-20T23:51:31.428Z,4.09
2023-04-20T23:53:57.848Z,4.03
2023-04-20T23:56:24.330Z,3.96
2023-04-20T23:58:50.840Z,3.93
